Latest Coastal Weather Observations for Hopetoun North

IDW60701

Issued at 3:02 pm WST Saturday 31 January 2015 (issued every 10 minutes, with the page automatically refreshed every 10 minutes)

About coastal observations | Map of coastal stations | Coastal observations for WA | Marine services | Other Formats
Station Details ID: 009961 Name: HOPETOUN NORTH Lat: -33.93 Lon: 120.13 Height: 26.0 m
Data from the previous 72 hours. | See also: Recent months at Hopetoun North
Date/Time
WST
Temp

°C
Wind Pressure Rain
since 9am
mm
Weather Cloud Vis
km
Sea
Height
m
Swell
Dir
 
Speed
knots
Gust
knots
hPa Trend Height
m
Period
s
Dir
31/03:00pm 22.7 ESE 15 22 1019.2 - 0.0 - - - - - - -
31/02:30pm 23.4 ESE 14 21 1019.5 - 0.0 - - - - - - -
31/02:00pm 23.1 ESE 15 21 1019.5 - 0.0 - - - - - - -
31/01:30pm 23.2 ESE 17 23 1019.7 - 0.0 - - - - - - -
31/01:00pm 23.1 ESE 17 24 1019.7 - 0.0 - - - - - - -
31/12:30pm 23.0 SE 16 24 1019.9 - 0.0 - - - - - - -
31/12:00pm 24.1 ESE 14 22 1020.0 - 0.0 - - - - - - -
31/11:30am 23.1 ESE 15 23 1020.2 - 0.0 - - - - - - -
31/11:00am 22.6 ESE 16 22 1020.3 - 0.0 - - - - - - -
31/10:30am 23.2 ESE 13 18 1020.5 - 0.0 - - - - - - -
31/10:00am 22.3 ESE 15 21 1020.5 - 0.0 - - - - - - -
31/09:30am 21.9 E 13 19 1020.6 - 0.0 - - - - - - -
31/09:00am 20.3 E 10 16 1020.8 - 0.0 - - - - - - -
31/08:30am 21.1 E 8 13 1020.6 - 0.0 - - - - - - -
31/08:00am 19.1 E 7 11 1020.5 - 0.0 - - - - - - -
31/07:30am 19.5 E 7 9 1020.3 - 0.0 - - - - - - -
31/07:00am 19.1 E 7 12 1020.1 - 0.0 - - - - - - -
31/06:30am 18.2 E 4 6 1019.9 - 0.0 - - - - - - -
31/06:00am 18.5 ENE 6 9 1019.5 - 0.0 - - - - - - -
31/05:30am 19.1 ESE 7 12 1019.2 - 0.0 - - - - - - -
31/05:00am 19.1 ESE 8 13 1019.1 - 0.0 - - - - - - -
31/04:30am 19.0 ESE 10 15 1018.8 - 0.0 - - - - - - -
31/04:00am 19.0 E 10 15 1018.5 - 0.0 - - - - - - -
31/03:30am 19.0 E 11 15 1018.4 - 0.0 - - - - - - -
31/03:00am 18.1 ENE 5 7 1018.4 - 0.0 - - - - - - -
31/02:30am 17.8 E 7 9 1018.5 - 0.0 - - - - - - -
31/02:00am 18.0 E 7 11 1018.5 - 0.0 - - - - - - -
31/01:30am 18.5 E 8 13 1018.7 - 0.0 - - - - - - -
31/01:00am 19.1 E 11 17 1018.8 - 0.0 - - - - - - -
31/12:30am 19.0 E 10 15 1019.0 - 0.0 - - - - - - -
31/12:00am 18.8 E 10 16 1019.2 - 0.0 - - - - - - -
 
Date/Time
WST
Temp

°C
Wind Pressure Rain
since 9am
mm
Weather Cloud Vis
km
Sea
Height
m
Swell
Dir
 
Speed
knots
Gust
knots
hPa Trend Height
m
Period
s
Dir
30/11:30pm 18.9 E 11 16 1019.2 - 0.0 - - - - - - -
30/11:00pm 18.8 E 9 14 1019.4 - 0.0 - - - - - - -
30/10:30pm 19.3 E 11 17 1019.6 - 0.0 - - - - - - -
30/10:00pm 19.6 ESE 11 15 1019.6 - 0.0 - - - - - - -
30/09:30pm 19.5 ESE 11 17 1019.6 - 0.0 - - - - - - -
30/09:00pm 19.6 ESE 11 18 1019.5 - 0.0 - - - - - - -
30/08:30pm 19.3 ESE 11 17 1019.2 - 0.0 - - - - - - -
30/08:00pm 19.3 ESE 11 18 1019.0 - 0.0 - - - - - - -
30/07:30pm 19.3 ESE 9 15 1018.5 - 0.0 - - - - - - -
30/07:00pm 19.6 ESE 11 16 1018.2 - 0.0 - - - - - - -
30/06:30pm 19.8 ESE 13 20 1018.1 - 0.0 - - - - - - -
30/06:00pm 20.2 ESE 13 18 1017.7 - 0.0 - - - - - - -
30/05:30pm 20.9 ESE 13 18 1017.5 - 0.0 - - - - - - -
30/05:00pm 21.5 ESE 15 22 1017.3 - 0.0 - - - - - - -
30/04:30pm 22.1 ESE 14 21 1017.2 - 0.0 - - - - - - -
30/04:00pm 22.6 ESE 15 21 1017.3 - 0.0 - - - - - - -
30/03:30pm 22.5 ESE 16 22 1017.5 - 0.0 - - - - - - -
30/03:00pm 22.4 ESE 15 23 1017.6 - 0.0 - - - - - - -
30/02:30pm 23.2 ESE 15 21 1017.4 - 0.0 - - - - - - -
30/02:00pm 23.7 ESE 15 23 1017.4 - 0.0 - - - - - - -
30/01:30pm 23.5 ESE 14 20 1017.5 - 0.0 - - - - - - -
30/01:00pm 23.0 ESE 15 23 1017.6 - 0.0 - - - - - - -
30/12:30pm 23.1 ESE 16 21 1017.7 - 0.0 - - - - - - -
30/12:00pm 22.9 ESE 16 21 1017.9 - 0.0 - - - - - - -
30/11:30am 23.5 ESE 15 23 1018.0 - 0.0 - - - - - - -
30/11:00am 23.2 ESE 14 19 1018.1 - 0.0 - - - - - - -
30/10:30am 22.7 ESE 14 19 1018.2 - 0.0 - - - - - - -
30/10:00am 23.2 ESE 15 20 1018.4 - 0.0 - - - - - - -
30/09:30am 23.1 ESE 13 19 1018.2 - 0.0 - - - - - - -
30/09:00am 21.2 E 12 17 1018.3 - 0.0 - - - - - - -
30/08:30am 20.9 E 10 16 1018.1 - 0.0 - - - - - - -
30/08:00am 20.0 E 12 18 1017.9 - 0.0 - - - - - - -
30/07:30am 19.3 E 12 16 1017.6 - 0.0 - - - - - - -
30/07:00am 19.0 ENE 11 15 1017.3 - 0.0 - - - - - - -
30/06:30am 19.1 ENE 11 17 1016.7 - 0.0 - - - - - - -
30/06:00am 18.9 ENE 8 12 1016.4 - 0.0 - - - - - - -
30/05:30am 18.8 E 10 16 1015.9 - 0.0 - - - - - - -
30/05:00am 18.9 E 11 18 1015.3 - 0.0 - - - - - - -
30/04:30am 18.9 E 11 17 1014.8 - 0.0 - - - - - - -
30/04:00am 19.2 E 12 17 1014.5 - 0.0 - - - - - - -
30/03:30am 19.1 ESE 11 18 1014.2 - 0.0 - - - - - - -
30/03:00am 19.0 ESE 9 15 1014.1 - 0.0 - - - - - - -
30/02:30am 19.1 ESE 8 11 1013.8 - 0.0 - - - - - - -
30/02:00am 19.1 SE 7 9 1013.8 - 0.0 - - - - - - -
30/01:30am 18.2 SE 6 7 1013.5 - 0.0 - - - - - - -
30/01:00am 17.9 SSE 4 5 1013.5 - 0.0 - - - - - - -
30/12:30am 16.5 WNW 1 2 1013.5 - 0.0 - - - - - - -
30/12:00am 18.1 NNE 2 2 1013.1 - 0.0 - - - - - - -
 
Date/Time
WST
Temp

°C
Wind Pressure Rain
since 9am
mm
Weather Cloud Vis
km
Sea
Height
m
Swell
Dir
 
Speed
knots
Gust
knots
hPa Trend Height
m
Period
s
Dir
29/11:30pm 18.2 ENE 3 6 1013.2 - 0.0 - - - - - - -
29/11:00pm 19.0 E 4 5 1013.0 - 0.0 - - - - - - -
29/10:30pm 19.4 E 4 5 1012.9 - 0.0 - - - - - - -
29/10:00pm 20.1 E 3 5 1012.9 - 0.0 - - - - - - -
29/09:30pm 20.5 ENE 5 7 1013.0 - 0.0 - - - - - - -
29/09:00pm 20.6 ENE 8 11 1012.5 - 0.0 - - - - - - -
29/08:30pm 20.4 E 8 11 1012.3 - 0.0 - - - - - - -
29/08:00pm 20.6 ENE 7 11 1012.3 - 0.0 - - - - - - -
29/07:30pm 20.7 ENE 6 9 1011.9 - 0.0 - - - - - - -
29/07:00pm 21.5 E 5 8 1011.5 - 0.0 - - - - - - -
29/06:30pm 21.8 E 6 10 1011.1 - 0.0 - - - - - - -
29/06:00pm 22.9 E 10 15 1010.7 - 0.0 - - - - - - -
29/05:30pm 22.5 ESE 12 17 1010.2 - 0.0 - - - - - - -
29/05:00pm 22.5 ESE 14 19 1010.1 - 0.0 - - - - - - -
29/04:30pm 23.5 ESE 13 18 1010.2 - 0.0 - - - - - - -
29/04:00pm 22.9 ESE 13 17 1010.3 - 0.0 - - - - - - -
29/03:30pm 22.8 ESE 14 20 1010.3 - 0.0 - - - - - - -
29/03:00pm 22.7 ESE 14 21 1010.3 - 0.0 - - - - - - -
29/02:30pm 22.5 ESE 15 21 1010.4 - 0.0 - - - - - - -
29/02:00pm 22.7 ESE 15 20 1010.8 - 0.0 - - - - - - -
29/01:30pm 24.1 SE 14 21 1011.1 - 0.0 - - - - - - -
29/01:00pm 24.8 SE 16 22 1011.1 - 0.0 - - - - - - -
29/12:30pm 24.0 SE 13 19 1011.4 - 0.0 - - - - - - -
29/12:00pm 23.1 SE 16 21 1011.3 - 0.0 - - - - - - -
29/11:30am 23.1 SE 16 21 1011.4 - 0.0 - - - - - - -
29/11:00am 24.8 ESE 15 22 1011.1 - 0.0 - - - - - - -
29/10:30am 25.1 ESE 14 20 1011.2 - 0.0 - - - - - - -
29/10:00am 27.3 ESE 10 14 1011.3 - 0.0 - - - - - - -
29/09:30am 31.3 NNE 6 11 1011.3 - 0.0 - - - - - - -
29/09:00am 29.9 NNE 6 10 1011.6 - 0.0 - - - - - - -
29/08:30am 27.6 NE 7 11 1011.5 - 0.0 - - - - - - -
29/08:00am 25.0 NE 7 10 1011.7 - 0.0 - - - - - - -
29/07:30am 23.3 ENE 7 10 1011.8 - 0.0 - - - - - - -
29/07:00am 21.6 ENE 7 10 1011.5 - 0.0 - - - - - - -
29/06:30am 18.9 NE 7 10 1011.0 - 0.0 - - - - - - -
29/06:00am 16.4 NE 6 8 1010.9 - 0.0 - - - - - - -
29/05:30am 14.5 ENE 6 8 1010.5 - 0.0 - - - - - - -
29/05:00am 13.8 NE 6 8 1010.3 - 0.0 - - - - - - -
29/04:30am 14.7 NE 5 5 1010.7 - 0.0 - - - - - - -
29/04:00am 14.9 ENE 6 7 1010.3 - 0.0 - - - - - - -
29/03:30am 15.4 ENE 5 6 1010.1 - 0.0 - - - - - - -
29/03:00am 16.6 ENE 3 5 1009.9 - 0.0 - - - - - - -
29/02:30am 17.3 ENE 4 6 1009.9 - 0.0 - - - - - - -
29/02:00am 17.9 E 6 8 1010.0 - 0.0 - - - - - - -
29/01:30am 18.1 E 6 7 1010.2 - 0.0 - - - - - - -
29/01:00am 18.1 E 3 4 1010.1 - 0.0 - - - - - - -
29/12:30am 18.8 NE 4 5 1009.9 - 0.0 - - - - - - -
29/12:00am 19.9 ENE 7 9 1009.8 - 0.0 - - - - - - -
 
Date/Time
WST
Temp

°C
Wind Pressure Rain
since 9am
mm
Weather Cloud Vis
km
Sea
Height
m
Swell
Dir
 
Speed
knots
Gust
knots
hPa Trend Height
m
Period
s
Dir
28/11:30pm 20.5 ENE 8 12 1009.7 - 0.0 - - - - - - -
28/11:00pm 21.2 ENE 9 14 1009.8 - 0.0 - - - - - - -
28/10:30pm 22.1 ENE 11 15 1009.8 - 0.0 - - - - - - -
28/10:00pm 22.5 ENE 11 17 1009.8 - 0.0 - - - - - - -
28/09:30pm 22.8 ENE 12 18 1009.9 - 0.0 - - - - - - -
28/09:00pm 22.9 ENE 14 20 1009.7 - 0.0 - - - - - - -
28/08:30pm 22.7 E 11 17 1009.7 - 0.0 - - - - - - -
28/08:00pm 22.8 E 12 19 1009.7 - 0.0 - - - - - - -
28/07:30pm 22.8 E 11 16 1009.5 - 0.0 - - - - - - -
28/07:00pm 23.4 E 11 20 1009.2 - 0.0 - - - - - - -
28/06:30pm 23.6 E 10 15 1009.0 - 0.0 - - - - - - -
28/06:00pm 23.6 ESE 13 17 1008.7 - 0.0 - - - - - - -
28/05:30pm 23.8 ESE 14 20 1008.6 - 0.0 - - - - - - -
28/05:00pm 23.7 ESE 16 23 1008.6 - 0.0 - - - - - - -
28/04:42pm 24.3 ESE 15 25 1008.6 - 0.0 - - - - - - -
28/04:30pm 24.2 ESE 18 26 1008.7 - 0.0 - - - - - - -
28/04:00pm 24.3 ESE 19 27 1008.9 - 0.0 - - - - - - -
28/03:30pm 24.4 ESE 20 28 1009.2 - 0.0 - - - - - - -

Other Formats:

Comma delimited format used in spreadsheet applications
http://www.bom.gov.au/fwo/IDW60701/IDW60701.95635.axf

JavaScript Object Notation format (JSON) in row-major order
http://www.bom.gov.au/fwo/IDW60701/IDW60701.95635.json